x

Los Angeles Pier F, Ca - 9410670 (pfxc1) Weather Station

5:12 - Wed 18th Jan 2017 All times are PST. -8 hours from GMT.

  • Wind
    2mph, 3mph gusts
  • Air Temp 52°f
  • Sea Pressure 1020.6mb
  • Los Angeles Pier F, Ca - 9410670
  • Los Angeles Pier F, Ca - 9410670

More Historic Weather Station data

Upgrade to MSW Pro to gain access to the past 30 days of data for over 8000 Wavebouys and Weather Stations around the globe.

Join Pro

Comparision Forecast

View Surf forecast
   
mer. 01/18 5:12 2 3 mph 1020.6mb 52f
5:06  -  1 mph 1020.6mb 52f
5:00 1 2 mph 1020.6mb 52f
4:54 2 3 mph 1020.6mb 52f
4:48 2 3 mph 1020.5mb 52f
4:42 2 3 mph 1020.5mb 52f
4:36 3 5 mph 1020.4mb 52f
4:30 2 5 mph 1020.5mb 52f
4:24 2 3 mph 1020.7mb 52f
4:18 1 3 mph 1020.7mb 52f
4:12 1 3 mph 1020.7mb 52f
4:06 1 3 mph 1020.7mb 52f
4:00 2 3 mph 1020.8mb 52f
3:54 2 3 mph 1020.8mb 53f
3:48 5 6 mph 1020.7mb 53f
3:42 5 6 mph 1020.7mb 53f
3:36 5 6 mph 1020.6mb 53f
3:30 6
mph
1020.6mb 53f
3:24 5 7 mph 1020.7mb 53f
3:18 6 7 mph 1020.7mb 53f
3:12 5 6 mph 1020.7mb 53f
3:06 3 5 mph 1020.8mb 53f
3:00 3 6 mph 1020.7mb 53f
2:54 6 8 mph 1020.6mb 53f
2:48 8 10 mph 1020.5mb 53f
2:42 9 10 mph 1020.4mb 53f
2:36 7 9 mph 1020.6mb 53f
2:30 6 7 mph 1020.7mb 53f
2:24 5 7 mph 1020.7mb 53f
2:18 6 8 mph 1020.6mb 53f
2:12 7 9 mph 1020.4mb 53f
2:06 7 8 mph 1020.4mb 53f
2:00 7 9 mph 1020.4mb 54f
1:54 8 9 mph 1020.4mb 54f
1:48 6 8 mph 1020.5mb 55f
1:42 7 8 mph 1020.5mb 55f
1:36 6
mph
1020.5mb 56f
1:30 5 6 mph 1020.5mb 55f
1:24 5 6 mph 1020.4mb 56f
1:18 3 6 mph 1020.6mb 56f
1:12 5 6 mph 1020.6mb 56f
1:06 6
mph
1020.6mb 55f
1:00 5 6 mph 1020.7mb 56f
12:54 5
mph
1020.8mb 56f
12:48 2 3 mph 1020.8mb 55f
12:42 5
mph
1020.7mb 56f
12:36 5 6 mph 1020.7mb 56f
12:30 5 6 mph 1020.7mb 56f
12:24 5 6 mph 1020.7mb 55f
12:18 3
mph
1020.9mb 56f
12:12 2 3 mph 1020.9mb 56f
12:06 2
mph
1021mb 55f
12:00 2 3 mph 1021.1mb 55f
mar. 01/17 11:54 2 3 mph 1021.2mb 55f
11:48 2 3 mph 1021.2mb 55f
11:42  -  2 mph 1021.2mb 55f
11:36  -  mph 1021.2mb 55f
11:30  -  mph 1021.2mb 55f
11:24  -  1 mph 1021.2mb 55f
11:18  -  1 mph 1021.2mb 55f
11:12  -  1 mph 1021.2mb 55f
11:06  -  1 mph 1021.2mb 54f
11:00  -  1 mph 1021.1mb 55f
10:54  -  1 mph 1021mb 55f
10:48 2
mph
1021mb 55f
10:42 2 3 mph 1021mb 55f
10:36 2 3 mph 1020.9mb 55f
10:30 3 6 mph 1021mb 55f
10:24 6 7 mph 1021mb 55f
10:18 5 8 mph 1020.9mb 56f
10:12 2 3 mph 1020.7mb 56f
10:06 2 3 mph 1020.7mb 56f
10:00 2 3 mph 1020.7mb 55f
9:54 3 5 mph 1020.8mb 56f
9:48  -  1 mph 1020.5mb 56f
9:42 2 3 mph 1020.4mb 56f
9:36 1 2 mph 1020.4mb 56f
9:30  -  1 mph 1020.4mb 57f
9:24 1 2 mph 1020.4mb 57f
9:18  -  1 mph 1020.2mb 57f
9:12 1 3 mph 1020.1mb 57f
9:06 3 5 mph 1019.9mb 57f
9:00 5
mph
1019.9mb 57f
8:54 3 5 mph 1019.9mb 57f
8:48 3 5 mph 1019.8mb 58f
8:42 2 3 mph 1019.9mb 58f
8:36 2
mph
1019.8mb 58f
8:30 2 3 mph 1019.7mb 58f
8:24 2
mph
1019.6mb 57f
8:18 2 3 mph 1019.6mb 58f
8:12 2 3 mph 1019.5mb 58f
8:06 1 2 mph 1019.4mb 58f
8:00 1 2 mph 1019.4mb 58f
7:54 2 5 mph 1019.5mb 57f
7:48 3
mph
1019.6mb 57f
7:42 3 5 mph 1019.6mb 57f
7:36 5 6 mph 1019.6mb 57f
7:30 6 7 mph 1019.6mb 57f
7:24 5 7 mph 1019.6mb 57f
7:18 6 8 mph 1019.6mb 57f
7:12 6 7 mph 1019.6mb 57f
7:06 6 7 mph 1019.6mb 58f
7:00 6 8 mph 1019.6mb 58f
6:54 7 8 mph 1019.6mb 58f
6:48 7 8 mph 1019.6mb 58f
6:42 8 9 mph 1019.5mb 58f
6:36 6 7 mph 1019.4mb 58f
6:30 7 8 mph 1019.6mb 58f
6:24 7 8 mph 1019.6mb 58f
6:18 8 10 mph 1019.5mb 58f
6:12 8 10 mph 1019.3mb 58f
6:06 9 10 mph 1019.3mb 58f
6:00 8 10 mph 1019.2mb 58f
5:54 8 10 mph 1019.1mb 58f
5:48 8 11 mph 1019mb 59f
5:42 8 10 mph 1018.9mb 59f
5:36 6 8 mph 1018.8mb 59f
5:30 6 8 mph 1018.8mb 60f
5:24 9 10 mph 1018.8mb 60f
5:18 10 13 mph 1018.8mb 60f
5:12 3 6 mph 1018.7mb 60f
5:06 6 7 mph 1018.6mb 61f
5:00 7 10 mph 1018.5mb 60f
4:48 9 11 mph 1018.2mb 60f
4:42 7 9 mph 1018.1mb 61f
4:36 7 8 mph 1018mb 61f
4:30 7 9 mph 1018mb 61f
4:24 8 10 mph 1018mb 61f
4:18 9 13 mph 1017.9mb 61f
4:12 10 13 mph 1018mb 61f
4:06 13 14 mph 1018mb 61f
4:00 13 15 mph 1017.8mb 61f
3:54 11 14 mph 1017.9mb 61f
3:48 11 13 mph 1018mb 61f
3:42 13 14 mph 1018mb 60f
3:36 13
mph
1018mb 60f
3:30 11 13 mph 1018mb 61f
3:24 10 13 mph 1018mb 62f
3:18 8 10 mph 1018.2mb 63f
3:12 9 11 mph 1018mb 64f
3:06 9 11 mph 1018mb 64f
3:00 9 13 mph 1018mb 65f
2:54 9 11 mph 1017.9mb 64f
2:48 10 13 mph 1017.8mb 64f
2:42 11 14 mph 1017.9mb 63f
2:36 8 11 mph 1017.9mb 64f
2:30 9 10 mph 1018mb 65f
2:24 9 11 mph 1018.1mb 64f
2:18 10 13 mph 1018mb 64f
2:12 9 13 mph 1018.2mb 65f
2:06 11 15 mph 1018.2mb 64f
2:00 14 16 mph 1018.2mb 63f
1:54 11 14 mph 1018.2mb 64f
1:48 9 13 mph 1018.3mb 64f
1:42 10 13 mph 1018.3mb 64f
1:36 8 10 mph 1018.4mb 64f
1:30 9 10 mph 1018.3mb 63f
1:24 9 11 mph 1018.3mb 63f
1:18 10
mph
1018.2mb 62f
1:12 9 10 mph 1018.2mb 62f
1:06 8 9 mph 1018.2mb 63f
1:00 8
mph
1018.3mb 62f
12:54 7 8 mph 1018.1mb 61f
12:48 7 8 mph 1018.1mb 62f
12:42 6 7 mph 1018.3mb 63f
12:36 6 7 mph 1018.4mb 63f
12:30 6 7 mph 1018.5mb 63f
12:24 6
mph
1018.5mb 62f
12:18 5 6 mph 1018.5mb 60f
12:12 5 6 mph 1018.5mb 59f
12:06 6 7 mph 1018.4mb 59f
12:00 6 7 mph 1018.4mb 60f
11:54 6 7 mph 1018.5mb 61f
11:48 7 8 mph 1018.5mb 60f
11:42 8
mph
1018.6mb 60f
11:36 7 9 mph 1018.7mb 60f
11:30 7 8 mph 1018.9mb 60f
11:24 6 7 mph 1019.1mb 60f
11:18 7
mph
1019.2mb 60f
11:12 7 8 mph 1019.3mb 60f
11:06 7 8 mph 1019.4mb 59f
11:00 8 9 mph 1019.5mb 59f
10:54 8 9 mph 1019.5mb 59f
10:48 7 9 mph 1019.7mb 59f
10:42 6 8 mph 1019.9mb 59f
10:36 6 8 mph 1019.7mb 58f
10:30 6 8 mph 1019.8mb 58f
10:24 6 8 mph 1019.7mb 58f
10:18 6 7 mph 1019.6mb 57f
10:12 6 8 mph 1019.6mb 56f
10:06 6 8 mph 1019.5mb 56f
10:00 6 8 mph 1019.3mb 57f
9:54 5 6 mph 1019.4mb 57f
9:48 6 7 mph 1019.6mb 58f
9:42 3 6 mph 1019.7mb 58f
9:36 2 5 mph 1019.6mb 58f
9:30 1 2 mph 1019.7mb 58f
9:24  -  mph - 59f
9:18  -  1 mph - 58f
9:12 2 3 mph - 57f
9:06 2 3 mph - 57f
9:00 1 3 mph - 56f
8:54 1 2 mph - 56f
8:48 2 3 mph - 56f
8:42 1 2 mph - 54f
8:36 2
mph
- 53f
8:30 2 3 mph - 53f
8:24 2 3 mph - 53f
8:18 2 5 mph - 53f
8:12 3 5 mph - 53f
8:06 3 5 mph - 52f
8:00 3
mph
- 52f
7:54 2 3 mph 1019.6mb 52f
7:48  -  1 mph 1019.6mb 52f
7:42  -  1 mph 1019.4mb 52f
7:36  -  2 mph 1019.2mb 51f
7:30  -  mph 1019.2mb 50f
7:24  -  1 mph 1019.1mb 50f
7:18 2
mph
1019mb 50f
7:12 2 3 mph 1018.8mb 50f
7:06 2 3 mph 1018.6mb 50f
7:00 2 3 mph 1018.5mb 50f
6:54 2 5 mph 1018.5mb 50f
6:48 2 3 mph 1018.5mb 50f
6:42 2 3 mph 1018.3mb 50f
6:36 2 3 mph 1018.2mb 50f
6:30 2 3 mph 1018.1mb 50f
6:24 2 3 mph 1018mb 51f
6:18 2 3 mph 1018mb 51f
6:12 3 6 mph 1018.1mb 51f
6:06 3 6 mph 1018mb 50f
6:00 2 3 mph 1018mb 50f
5:54 3 6 mph 1018mb 51f
5:48 6 7 mph 1018mb 51f
5:42 7 8 mph 1017.9mb 51f
5:36 7 8 mph 1017.9mb 51f
5:30 7
mph
1017.8mb 51f
5:24 7
mph
1017.7mb 51f
5:18 6 7 mph 1017.7mb 51f
5:12 6
mph
1017.7mb 51f
5:06 6 7 mph 1017.7mb 51f
5:00 6 7 mph 1017.7mb 51f
4:54 6 7 mph 1017.7mb 51f
4:48 6 7 mph 1017.7mb 51f
4:42 6 7 mph 1017.6mb 51f
4:36 6 7 mph 1017.6mb 51f
4:30 6 7 mph 1017.5mb 52f
4:24 6 7 mph 1017.5mb 52f
4:18 5 6 mph 1017.5mb 51f
4:12 5 7 mph 1017.5mb 52f
4:06 8 9 mph 1017.5mb 52f
4:00 8 9 mph 1017.4mb 52f
3:54 7
mph
1017.4mb 52f
3:48 7
mph
1017.4mb 52f
3:42 6 7 mph 1017.4mb 52f
3:36 6 7 mph 1017.4mb 53f
3:30 6 7 mph 1017.4mb 53f
3:18 3 5 mph 1017.3mb 53f
3:12 3 5 mph 1017.3mb 53f
3:06 2 5 mph 1017.3mb 53f
3:00 3 5 mph 1017.2mb 53f
2:54 2 3 mph 1017.3mb 53f
2:48 3 5 mph 1017.3mb 53f
2:42 2 3 mph 1017.3mb 53f
2:36 2
mph
1017.3mb 53f
2:30 2
mph
1017.2mb 53f
2:24 2 5 mph 1017.2mb 53f
2:18 3 5 mph 1017.2mb 53f
2:12 3
mph
1017.2mb 53f
2:06 5
mph
1017.2mb 53f
2:00 5 6 mph 1017.2mb 53f
1:54 3 5 mph 1017.2mb 53f
1:48 3 5 mph 1017.3mb 54f
1:42 5 6 mph 1017.2mb 54f
1:36 2 5 mph 1017.2mb 54f
1:30 3
mph
1017.2mb 54f
1:24 3 5 mph 1017.2mb 54f
1:18 5
mph
1017.2mb 54f
1:12 3 5 mph 1017.3mb 54f
1:06 3
mph
1017.3mb 54f
1:00 3 5 mph 1017.4mb 54f
12:54 3 5 mph 1017.4mb 54f
12:48 3
mph
1017.4mb 54f
12:42 3 5 mph 1017.4mb 54f
12:36 3
mph
1017.4mb 54f
12:30 3
mph
1017.4mb 55f
12:24 3
mph
1017.5mb 55f
12:18 2 3 mph 1017.6mb 55f
12:12 3 5 mph 1017.7mb 55f
12:06 3 5 mph 1017.7mb 55f
12:00 2 3 mph 1017.9mb 55f
lun. 01/16 11:54 2 3 mph 1017.9mb 55f
11:48 3 5 mph 1017.8mb 55f
11:42 3
mph
1017.8mb 55f
11:36 5 6 mph 1017.8mb 55f
11:30 5 6 mph 1017.8mb 55f
11:24 2 3 mph 1017.8mb 55f
11:18 2 3 mph 1017.8mb 55f
11:12  -  3 mph 1017.7mb 55f
11:06 1 2 mph 1017.6mb 56f
11:00 2 3 mph 1017.5mb 56f
10:54 2 5 mph 1017.6mb 56f
10:48 3 6 mph 1017.5mb -
10:42 6 7 mph 1017.6mb -
10:36 5 6 mph 1017.5mb -
10:30 5 6 mph 1017.5mb 56f
10:24 5 6 mph 1017.6mb 56f
10:18 2 3 mph 1017.5mb 56f
10:12 1 2 mph 1017.4mb 56f
10:06 2
mph
1017.4mb 56f
10:00 2 3 mph 1017.4mb 57f
9:54 3 5 mph 1017.5mb 57f
9:48 5 6 mph - -
9:42 5 6 mph - -
9:36 5 6 mph - -
9:30 3 5 mph 1017.4mb 57f
9:24 5 6 mph 1017.4mb 57f
9:18 6 7 mph 1017.3mb 57f
9:12 6
mph
1017.4mb 57f
9:06 6 7 mph 1017.4mb 57f
9:00 6 7 mph 1017.4mb 57f
8:54 7 8 mph 1017.4mb 58f
8:48 7 9 mph 1017.4mb 58f
8:42 7 8 mph 1017.4mb 58f
8:36 8 9 mph 1017.3mb 58f
8:30 7 9 mph 1017.2mb 58f
8:24 6 8 mph 1017.4mb 57f
8:18 2 5 mph 1017.3mb 56f
8:12 1 2 mph 1017.2mb 56f
8:06 1 2 mph 1017.1mb 56f
8:00 2 3 mph 1017.1mb 56f
7:54 3 5 mph 1017.1mb 57f
7:48 5 6 mph 1017.1mb 57f
7:42 5 6 mph 1017.1mb 57f
7:36 5 7 mph 1017.1mb 57f
7:30 6 7 mph 1017mb 57f
7:24 6 7 mph 1017mb 58f
7:18 3 5 mph 1017mb 57f
7:12 3 6 mph 1016.9mb 57f
7:06 6 7 mph 1016.9mb 57f
7:00 5 7 mph 1016.9mb 57f
6:54 3 6 mph 1016.9mb 57f
6:48 3 6 mph 1016.9mb 57f
6:42 5 8 mph 1016.8mb 57f
6:36 5 6 mph 1016.8mb 57f
6:30 6 7 mph 1016.7mb 57f
6:24 7 9 mph 1016.6mb 58f
6:18 8 10 mph 1016.6mb 58f
6:12 10 11 mph 1016.5mb 58f
6:06 8 10 mph 1016.5mb 58f
6:00 8 11 mph 1016.5mb 58f
5:54 9 11 mph 1016.4mb 58f
5:48 11 15 mph 1016.4mb 58f
5:42 11 14 mph 1016.4mb 58f
5:36 11 14 mph 1016.3mb 58f
5:30 13 17 mph 1016.3mb 58f
5:24 15 18 mph 1016.2mb 58f
5:18 14 20 mph 1016.3mb 59f
5:12 14 17 mph 1016.2mb 59f
5:06 14 15 mph 1016.1mb 59f
5:00 13 15 mph 1016.1mb 60f
4:54 13 15 mph 1016mb 60f
4:48 13 14 mph 1015.9mb 60f
4:42 14 16 mph 1015.9mb 60f
4:36 15 17 mph 1015.8mb 60f
4:30 15 17 mph 1015.8mb 61f
4:24 13 14 mph 1015.8mb 62f
4:18 10 13 mph 1015.8mb 62f
4:12 10 11 mph 1015.9mb 62f
4:06 10 14 mph 1015.9mb 62f
4:00 10 14 mph 1015.9mb 62f
3:54 10 13 mph 1015.9mb 62f
3:48 11 14 mph 1015.8mb 62f
3:42 10 13 mph 1015.9mb 62f
3:36 10 13 mph 1015.8mb 62f
3:30 11 14 mph 1015.8mb 62f
3:24 13 15 mph 1015.6mb 63f
3:18 9 13 mph 1015.7mb 65f
3:12 8 9 mph 1015.7mb 66f
3:06 8 9 mph 1015.6mb 66f
3:00 9 10 mph 1015.5mb 65f
2:54 9 11 mph 1015.5mb 65f
2:48 9 11 mph 1015.6mb 65f
2:42 9 11 mph 1015.7mb 65f
2:36 10 13 mph 1015.6mb 64f
2:30 10 11 mph 1015.7mb 64f
2:24 10 14 mph 1015.7mb 64f
2:18 10 13 mph 1015.7mb 64f
2:12 11 13 mph 1015.7mb 65f
2:06 11 14 mph 1015.7mb 65f
2:00 13 14 mph 1015.7mb 65f
1:54 11 14 mph 1015.7mb 65f
1:48 11 14 mph 1015.8mb 65f
1:42 10 13 mph 1015.8mb 66f
1:36 8 14 mph 1015.9mb 66f
1:30 6 8 mph 1015.9mb 65f
1:24 7 9 mph 1016mb 65f
1:18 7 8 mph 1016.1mb 65f
1:12 8 10 mph 1016.1mb 64f
1:06 9 10 mph 1016.1mb 64f
1:00 10 11 mph 1016.1mb 64f
12:54 9 10 mph 1016.1mb 64f
12:48 9 10 mph 1016.2mb 64f
12:42 9 10 mph 1016.3mb 64f
12:36 9 10 mph 1016.4mb 63f
12:30 10
mph
1016.5mb 63f
12:24 9 10 mph 1016.7mb 63f
12:18 9 10 mph 1016.8mb 64f
12:12 9 10 mph 1016.9mb 63f
12:06 9 10 mph 1017.1mb 63f
12:00 9 10 mph 1017.1mb 63f
11:54 7
mph
1017.4mb 64f
11:48 7 8 mph 1017.5mb 64f
11:42 7 8 mph 1017.7mb 64f
11:36 7
mph
1017.9mb 63f
11:30 7 8 mph 1017.9mb 62f
11:24 5 6 mph 1018.1mb 63f
11:18 3 6 mph 1018.2mb 62f
11:12 2 3 mph 1018.3mb 63f
11:06 3
mph
1018.4mb 62f
11:00 2 3 mph 1018.5mb 62f
10:54 2
mph
1018.7mb 62f
10:48 2 3 mph 1018.8mb 63f
10:42 2 3 mph 1019.1mb 62f
10:36 2 3 mph 1018.7mb 61f
10:30 2 3 mph 1018.6mb 61f
10:24 2 3 mph 1018.9mb 61f
10:18 2 3 mph 1018.9mb 62f
10:12 3
mph
1019mb 62f
10:06 2 3 mph 1019.3mb 62f
10:00 1 2 mph 1019.1mb 61f
9:54 1
mph
1018.8mb 61f
9:48  -  2 mph - 61f
9:42  -  mph - 62f
9:36 1 2 mph - 60f
9:30 2
mph
- 60f
9:24 2
mph
- 59f
9:18 2 3 mph - 60f
9:12 2
mph
- 62f
9:06 3
mph
- 60f
9:00 2 3 mph - 60f
8:54 5
mph
- 60f
8:48 5 6 mph - 60f
8:42 5 6 mph - 59f
8:36 3 5 mph 1019.1mb 58f
8:30 2 3 mph 1018.9mb 57f
8:24 3
mph
1018.8mb 56f
8:18 3 5 mph 1018.7mb 56f
8:12 3
mph
1018.6mb 56f
8:06 2 5 mph 1018.5mb 56f
8:00 3
mph
1018.5mb 56f
7:54 3 5 mph 1018.5mb 56f
7:48 3
mph
1018.4mb 55f
7:42 2
mph
1018.3mb 55f
7:36  -  mph 1018.2mb 55f
7:30  -  mph 1018.2mb 55f
7:24  -  mph 1018mb 54f
7:18  -  1 mph 1018mb 55f
7:12 2
mph
1017.9mb 54f
7:06 1
mph
1017.9mb 54f
7:00  -  1 mph 1017.8mb 55f
6:54  -  2 mph 1017.7mb 55f
6:48  -  2 mph 1017.6mb 55f
6:42 1 2 mph 1017.5mb 55f
6:36 3
mph
1017.5mb 55f
6:30 2
mph
1017.4mb 55f
6:24 2
mph
1017.4mb 55f
6:18 1 2 mph 1017.3mb 55f
6:12 2
mph
1017.2mb 55f
6:06 2
mph
1017.2mb 55f
6:00  -  1 mph 1017.2mb 55f
5:54 1 2 mph 1017.1mb 56f
5:48 1 2 mph 1017.1mb 56f
5:42 2 3 mph 1017mb 56f
5:36 2 3 mph 1016.9mb 56f
5:30 1 3 mph 1016.9mb 56f
5:24  -  2 mph 1016.9mb 56f
5:18 1 5 mph 1016.9mb 56f
5:12 2 5 mph 1016.9mb 56f
5:06 3 6 mph 1016.9mb 56f
5:00 3 5 mph 1016.9mb 56f
4:54 5 6 mph 1016.9mb 56f
4:48 5 6 mph 1016.9mb 56f
4:42 5 6 mph 1016.8mb 56f
4:36 5
mph
1016.7mb 56f
4:30 5
mph
1016.7mb 56f
4:24 3 5 mph 1016.7mb 56f
4:18 3 5 mph 1016.7mb 56f
4:06 3 6 mph 1016.6mb 56f
4:00 5 6 mph 1016.7mb 56f
3:54 5 6 mph 1016.7mb 56f
3:48 5 6 mph 1016.7mb 56f
3:42 3 6 mph 1016.7mb 56f
3:36 3
mph
1016.8mb 56f
3:30 3 5 mph 1016.8mb 56f
3:24 3 5 mph 1016.9mb 56f
3:18 3 5 mph 1016.9mb 56f
3:12 3
mph
1016.9mb 56f
3:06 3
mph
1017mb 56f
3:00 3 5 mph 1017mb 56f
2:48 2 3 mph 1017.2mb 56f
2:42 3 5 mph 1017.2mb 56f
2:36 3
mph
1017.2mb 56f
2:30 3
mph
1017.3mb 56f
2:24 2 3 mph 1017.3mb 56f
2:18 2 3 mph 1017.4mb 56f
2:12 3
mph
1017.4mb 56f
2:06 2 3 mph 1017.4mb 56f
2:00 2 3 mph 1017.4mb 56f
1:54 3
mph
1017.4mb 56f
1:48 2 3 mph 1017.4mb 56f
1:42 1 3 mph 1017.5mb 56f
1:36  -  2 mph 1017.4mb 56f
1:30 1 2 mph 1017.4mb 57f
1:24 3 5 mph 1017.4mb 57f
1:18 3 5 mph 1017.4mb 57f
1:12 3 5 mph 1017.4mb 57f
1:06 3 5 mph 1017.4mb 57f
1:00 3 5 mph 1017.5mb 57f
12:54 5 6 mph 1017.4mb 57f
12:48 3 5 mph 1017.4mb 57f
12:42 2 3 mph 1017.4mb 57f
12:30 3 5 mph 1017.5mb 57f
12:24 3 5 mph 1017.7mb 57f
12:18 5 6 mph 1017.7mb 57f
12:12 3 6 mph 1017.7mb 56f
12:06 3 5 mph 1017.7mb 57f
12:00 3 6 mph 1017.7mb 57f
dim. 01/15 11:54 5 7 mph 1017.7mb 56f
11:48 5 6 mph 1017.7mb 56f
11:42 5 6 mph 1017.7mb 56f
11:36 5 6 mph 1017.7mb 56f
11:30 5 6 mph 1017.7mb 56f
11:24 3 6 mph 1017.7mb 56f
11:18 3 6 mph 1017.7mb 56f
11:12 5 6 mph 1017.7mb 56f
11:06 3 6 mph 1017.8mb 56f
11:00 5 6 mph 1017.8mb 56f
10:54 5 6 mph 1017.8mb 56f
10:48 5 7 mph 1017.8mb -
10:42 6 7 mph 1017.8mb -
10:36 5 6 mph 1017.7mb -
10:30 5 6 mph 1017.7mb 57f
10:24 6 7 mph 1017.7mb 57f
10:18 5 6 mph 1017.7mb 57f
10:12 5 6 mph 1017.9mb 57f
10:06 3 5 mph 1017.9mb 57f
10:00 5
mph
1018mb 57f
9:54 5 6 mph 1017.9mb 57f
9:48 3 5 mph 1017.9mb 57f
9:42 5
mph
1018mb 58f
9:36 5 6 mph 1018mb 58f
9:30 5
mph
1018mb 58f
9:24 5 6 mph 1017.9mb 58f
9:18 6 7 mph 1017.8mb 58f
9:12 5 6 mph 1017.7mb 58f
9:06 5 6 mph 1017.7mb 58f
9:00 6 7 mph 1017.7mb 58f
8:54 7 8 mph 1017.6mb 58f
8:48 6 7 mph 1017.5mb 58f
8:42 7 8 mph 1017.4mb 58f
8:36 7 8 mph 1017.5mb 58f
8:30 8
mph
1017.4mb 58f
8:24 8 9 mph 1017.4mb 58f
8:18 9 10 mph 1017.4mb 58f
8:12 9 10 mph 1017.4mb 58f
8:06 10 11 mph 1017.3mb 58f
8:00 9 11 mph 1017.3mb 58f
7:54 10 11 mph 1017.2mb 58f
7:48 10 11 mph 1017.2mb 58f
7:42 9 11 mph 1017.3mb 58f
7:36 10 11 mph 1017.4mb 58f
7:30 9 11 mph 1017.3mb 58f
7:24 9 11 mph 1017.3mb 58f
7:18 7 10 mph 1017.4mb 58f
7:12 6 9 mph 1017.4mb 59f
7:06 6 8 mph 1017.3mb 59f
7:00 7 9 mph 1017.3mb 59f
6:54 6 8 mph 1017.2mb 58f
6:42 7 8 mph 1017.1mb 59f
6:36 7 9 mph 1017mb 59f
6:30 7 9 mph 1017.1mb 59f
6:24 7 9 mph 1017mb 59f
6:18 8 10 mph 1016.9mb 59f
6:12 7 9 mph 1016.9mb 59f
6:06 8 9 mph 1016.9mb 59f
6:00 8 9 mph 1016.8mb 59f
5:54 8 9 mph 1016.7mb 59f
5:48 8 10 mph 1016.6mb 59f
5:42 8 10 mph 1016.6mb 59f
5:36 9 10 mph 1016.5mb 59f
5:30 9 10 mph 1016.4mb 59f
5:24 10 11 mph 1016.4mb 59f
5:18 10 13 mph 1016.3mb 59f
5:12 10 13 mph 1016.3mb 59f
5:06 11 13 mph 1016.3mb 59f
5:00 10 13 mph 1016.2mb 59f
4:54 13 14 mph 1016.1mb 59f
4:48 11 14 mph 1016.1mb 60f
4:42 13 14 mph 1016mb 60f
4:36 11 14 mph 1016.1mb 60f
4:30 13 14 mph 1016mb 60f
4:24 11 14 mph 1016mb 60f
4:18 13 15 mph 1016.1mb 60f
4:12 13 15 mph 1016.2mb 60f
4:06 13 15 mph 1016.1mb 60f
4:00 13 14 mph 1016mb 60f
3:54 14 16 mph 1016mb 60f
3:48 14 16 mph 1016mb 60f
3:42 14 15 mph 1016mb 60f
3:36 14 16 mph 1016mb 60f
3:30 13 15 mph 1016mb 60f
3:24 15 17 mph 1016.1mb 60f
3:18 15 16 mph 1016.1mb 60f
3:12 14 16 mph 1016.1mb 60f
3:06 14 16 mph 1016.1mb 61f
3:00 14 16 mph 1016.1mb 61f
2:54 14 16 mph 1016.1mb 60f
2:48 14 15 mph 1016.2mb 60f
2:42 14 15 mph 1016.1mb 60f
2:36 13 16 mph 1016.1mb 60f
2:30 13 15 mph 1016mb 60f
2:24 14 15 mph 1016mb 60f
2:18 14 16 mph 1016mb 60f
2:12 14 16 mph 1016mb 60f
2:06 14 15 mph 1016mb 60f
2:00 14 15 mph 1015.9mb 60f
1:54 13 15 mph 1016.1mb 61f
1:48 14 15 mph 1016mb 60f
1:42 14 16 mph 1016.2mb 61f
1:36 13 15 mph 1016.3mb 60f
1:30 14 16 mph 1016.2mb 60f
1:24 15 16 mph 1016.2mb 60f
1:18 15 16 mph 1016.3mb 60f
1:12 15 16 mph 1016.1mb 60f
1:06 15 17 mph 1016.1mb 61f
1:00 14 17 mph 1016.4mb 61f
12:54 15 17 mph 1016.4mb 61f
12:48 13 16 mph 1016.5mb 62f
12:42 14 17 mph 1016.5mb 62f
12:36 14 17 mph 1016.6mb 62f
12:30 14 18 mph 1016.7mb 62f
12:24 13 16 mph 1016.8mb 62f
12:18 14 18 mph 1016.7mb 61f
12:12 15 20 mph 1016.7mb 61f
12:06 14 18 mph 1016.8mb 61f
12:00 15 20 mph 1017mb 61f
11:54 14 18 mph 1017.1mb 61f
11:48 16 20 mph 1017.2mb 61f
11:42 16 18 mph 1017.3mb 60f
11:36 16 18 mph 1017.4mb 60f
11:30 17 18 mph 1017.4mb 60f
11:24 15 17 mph 1017.6mb 60f
11:18 16 18 mph 1017.7mb 60f
11:12 16 18 mph 1017.8mb 60f
11:06 15 18 mph 1017.7mb 60f
11:00 14 17 mph 1017.9mb 60f
10:54 16 18 mph 1017.9mb 60f
10:48 16 20 mph 1018mb 60f
10:42 15 18 mph 1018mb 60f
10:36 15 18 mph 1018.1mb 60f
10:30 15 18 mph 1018.2mb 60f
10:24 16 20 mph 1018.1mb 60f
10:18 16 20 mph 1018.3mb 60f
10:12 14 17 mph 1018.2mb 60f
10:06 8 13 mph 1018.2mb 60f
10:00 8 11 mph 1018.1mb 59f
9:54 7 11 mph 1018.1mb 59f
9:48 8 10 mph 1018mb 59f
9:42 8 11 mph 1018.1mb 58f
9:36 7 10 mph 1017.9mb 58f
9:30 7 9 mph 1017.8mb 58f
9:24 6 9 mph 1018mb 58f
9:18 8 10 mph 1017.7mb 58f
9:12 7 10 mph 1017.7mb 57f
9:06 7 9 mph 1017.7mb 57f
9:00 7 9 mph 1017.7mb 57f
8:54 7 10 mph 1017.5mb 57f
8:48 7 9 mph 1017.6mb 57f
8:42 6 8 mph 1017.4mb 56f
8:36 6 9 mph 1017.4mb 56f
8:30 7 9 mph 1017.4mb 56f
8:24 7 9 mph 1017.3mb 55f
8:18 6 8 mph 1017.1mb 55f
8:12 6 9 mph 1017.2mb 55f
8:06 7 9 mph 1017.1mb 55f
8:00 7 8 mph 1017mb 54f
7:54 7 9 mph 1016.9mb 54f
7:48 7 8 mph 1016.9mb 54f
7:42 7 9 mph 1016.9mb 54f
7:36 5 6 mph 1016.9mb 54f
7:30 3 6 mph 1016.9mb 54f
7:24 2 5 mph 1016.9mb 53f
7:18 2 3 mph 1016.8mb 53f
7:12 2 3 mph 1016.8mb 53f
7:06 2 5 mph 1016.8mb 53f
7:00 3 5 mph 1016.8mb 53f
6:54 2 3 mph 1016.8mb 54f
6:48 1 2 mph 1016.7mb 54f
6:42 2 5 mph 1016.6mb 54f
6:36 2 6 mph 1016.5mb 54f
6:30 5 7 mph 1016.4mb 54f
6:24 5 7 mph 1016.4mb 54f
6:18 5 7 mph 1016.2mb 54f
6:12 6 7 mph 1016.2mb 54f
6:06 6 7 mph 1016.1mb 54f
6:00 6 7 mph 1016.1mb 54f
5:54 5 7 mph 1016.1mb 54f
5:48 3 5 mph 1016.1mb 54f
5:42 5 6 mph 1016mb 54f
5:36 5 6 mph 1015.9mb 54f
5:30 6 8 mph 1015.8mb 54f
5:24 7 8 mph 1015.9mb 54f
5:18 6 8 mph 1015.8mb 54f
5:12 6 8 mph 1015.8mb 54f
5:06 6 9 mph 1015.8mb 54f
5:00 6 9 mph 1015.8mb 54f
4:54 6 9 mph 1015.7mb 54f
4:48 6 9 mph 1015.8mb 54f
4:42 6 9 mph 1015.8mb 54f
4:36 6 9 mph 1015.7mb 55f
4:30 7 9 mph 1015.6mb 55f
4:24 6 7 mph 1015.6mb 55f
4:18 6 9 mph 1015.5mb 55f
4:12 7 9 mph 1015.5mb 55f
4:06 7 11 mph 1015.6mb 55f
4:00 7 11 mph 1015.7mb 55f
3:54 6 8 mph 1015.7mb 55f
3:48 7 9 mph 1015.8mb 55f
3:42 7 10 mph 1015.8mb 55f
3:36 7 10 mph 1015.8mb 55f
3:30 6 10 mph 1015.7mb 55f
3:24 6 8 mph 1015.7mb 55f
3:18 7 9 mph 1015.7mb 55f
3:12 7 10 mph 1015.8mb 56f
3:06 6 8 mph 1015.8mb 56f
3:00 6 9 mph 1015.8mb 56f
2:54 8 10 mph 1015.6mb 57f
2:48 9 14 mph 1015.6mb 57f
2:42 11 14 mph 1015.6mb 57f
2:36 10 14 mph 1015.6mb 57f
2:30 9 11 mph 1015.6mb 57f
2:24 10 14 mph 1015.5mb 57f
2:18 9 11 mph 1015.4mb 58f
2:12 9 13 mph 1015.4mb 58f
2:06 11 15 mph 1015.3mb 58f
2:00 10 14 mph 1015.3mb 58f
1:54 11 14 mph 1015.3mb 58f
1:48 11 14 mph 1015.3mb 58f
1:42 10 14 mph 1015.3mb 58f
1:36 10 14 mph 1015.3mb 58f
1:30 8 11 mph 1015.3mb 58f
1:24 7 9 mph 1015.3mb 58f
1:18 7 9 mph 1015.3mb 58f
1:12 3 7 mph 1015.3mb 57f
1:06 3 6 mph 1015.3mb 57f
1:00 2 3 mph 1015.3mb 57f
12:54 3 6 mph 1015.3mb 57f
12:48 2 3 mph 1015.3mb 57f
12:42 3 6 mph 1015.2mb 57f
12:36 3 6 mph 1015.2mb 57f
12:30 3 5 mph 1015.2mb 57f
12:24 3 7 mph 1015.3mb 57f
12:18 2 3 mph 1015.2mb 57f
12:12 2 5 mph 1015.2mb 57f
12:06 2 5 mph 1015.2mb 57f
12:00 2
mph
1015.3mb 56f
sam. 01/14 11:54 2 3 mph 1015.2mb 57f
11:48 2 5 mph 1015.1mb 57f
11:42 2 6 mph 1015mb 57f
11:36 2 5 mph 1015.1mb 57f
11:30 3 6 mph 1015mb 57f
11:24 7 10 mph 1014.8mb 57f
11:18 9 11 mph 1014.7mb 57f
11:12 9 13 mph 1014.7mb 57f
11:06 9 13 mph 1014.7mb 58f
11:00 8 13 mph 1014.7mb 58f
10:54 7 10 mph 1014.7mb 58f
10:48 8 11 mph 1014.7mb -
10:42 7 10 mph 1014.8mb -
10:36 7 8 mph 1014.9mb -
10:30 6 8 mph 1014.8mb 59f
10:24 5 6 mph 1014.8mb 59f
10:18 6 8 mph 1014.7mb 59f
10:12 6 8 mph 1014.8mb 59f
10:06 5 7 mph 1014.8mb 59f
10:00 6 7 mph 1014.9mb 59f
9:54 6 7 mph 1014.9mb 59f
9:48 6 8 mph 1015mb -
9:42 6 8 mph 1015mb -
9:36 5 6 mph 1015mb -
9:30 5 6 mph 1014.9mb 59f
9:24 6 8 mph 1014.9mb 59f
9:18 7 8 mph 1015mb 59f
9:12 8 10 mph 1014.9mb 59f
9:06 7 9 mph 1015mb 59f
9:00 7 9 mph 1015mb 59f
8:54 7 9 mph 1015.1mb 60f
8:48 5 9 mph 1015mb 59f
8:42 5 7 mph 1015mb 59f
8:36 6 9 mph 1014.9mb 59f
8:30 6 8 mph 1014.9mb 59f
8:24 8 10 mph 1014.9mb 59f
8:18 7 9 mph 1014.8mb 59f
8:12 6 9 mph 1014.7mb 60f
8:06 7 9 mph 1014.7mb 60f
8:00 3 5 mph 1014.6mb 61f
7:54 6 8 mph 1014.6mb 62f
7:48 3 6 mph 1014.6mb 64f
7:42 7 9 mph 1014.4mb 64f
7:36 6 9 mph 1014.3mb 64f
7:30 7 8 mph 1014.4mb 64f
7:24 7 8 mph 1014.3mb 64f
7:18 7 8 mph 1014.2mb 63f
7:12 6 7 mph 1014.2mb 64f
7:06 5 7 mph 1014.2mb 64f
7:00 6
mph
1014.2mb 63f
6:54 6 8 mph 1014.2mb 63f
6:48 8 9 mph 1014.2mb 62f
6:42 6 7 mph 1014.2mb 61f
6:36 6
mph
1014.2mb 61f
6:30 5 7 mph 1014.1mb 62f
6:24 6 7 mph 1014.1mb 63f
6:18 6 7 mph 1014.1mb 62f
6:12 6 7 mph 1014mb 61f
6:06 8 9 mph 1014mb 61f
6:00 8
mph
1013.9mb 62f
5:54 7 9 mph 1013.9mb 63f
5:48 7 9 mph 1013.9mb 63f
5:42 9 11 mph 1013.8mb 62f
5:36 10 13 mph 1013.7mb 61f
5:30 10 13 mph 1013.7mb 60f
5:24 6 8 mph 1013.6mb 62f
5:18 1 3 mph 1013.6mb 63f
5:12 1 2 mph 1013.7mb 62f
5:06 2 3 mph 1013.7mb 63f
5:00 2 3 mph 1013.8mb 63f
4:54 3 5 mph 1013.8mb 63f
4:48 5
mph
1013.8mb 65f
4:42 5 6 mph 1013.8mb 66f
4:36 5 8 mph 1013.9mb 68f
4:30 8 9 mph 1013.9mb 67f
4:24 9 11 mph 1013.9mb 65f
4:18 10 14 mph 1013.7mb 65f
4:12 9 13 mph 1013.9mb 68f
4:06 8 11 mph 1013.9mb 69f
4:00 9 14 mph 1013.8mb 68f
3:54 10 14 mph 1013.8mb 67f
3:48 9 13 mph 1013.9mb 67f
3:42 8 10 mph 1013.9mb 67f
3:36 9 14 mph 1013.9mb 67f
3:30 9 13 mph 1013.8mb 66f
3:24 10 13 mph 1013.7mb 65f
3:18 11 13 mph 1013.6mb 65f
3:12 9 10 mph 1013.6mb 65f
3:06 10 11 mph 1013.7mb 66f
3:00 10 11 mph 1013.6mb 67f
2:54 10 11 mph 1013.7mb 67f
2:48 11 13 mph 1013.7mb 68f
2:42 10 13 mph 1013.7mb 68f
2:36 9 13 mph 1013.7mb 67f
2:30 10 13 mph 1013.7mb 67f
2:24 9 11 mph 1013.7mb 68f
2:18 8 10 mph 1013.8mb 68f